Time;durP1;ratioP1;P1;durP2;ratioP2;P2;SDS_P1;SDS_P2;PMS_P1;PMS_P2;Temp;Humidity;BMP_temperature;BMP_pressure;BME280_temperature;BME280_humidity;BME280_pressure;Samples;Min_cycle;Max_cycle;Signal;HPM_P1;HPM_P2
2022/03/01 00:01:58;;;;;;;0.77;0.67;;;2.60;99.90;;;;;;4916997;29;20424;-71
2022/03/01 00:04:23;;;;;;;0.70;0.50;;;2.50;99.90;;;;;;4908948;29;20491;-71
2022/03/01 00:06:49;;;;;;;0.70;0.50;;;2.50;99.90;;;;;;4911909;29;20432;-71
2022/03/01 00:09:14;;;;;;;1.33;1.23;;;2.40;99.90;;;;;;4916539;29;20186;-71
2022/03/01 00:11:40;;;;;;;1.63;1.00;;;2.40;99.90;;;;;;4916550;29;20694;-71
2022/03/01 00:14:06;;;;;;;1.00;0.90;;;2.40;99.90;;;;;;4905899;29;20607;-71
2022/03/01 00:16:32;;;;;;;0.70;0.50;;;2.30;99.90;;;;;;4897873;29;20183;-71
2022/03/01 00:18:58;;;;;;;0.70;0.50;;;2.30;99.90;;;;;;4896884;29;20463;-71
2022/03/01 00:21:25;;;;;;;1.10;1.00;;;2.30;99.90;;;;;;4901874;29;20979;-71
2022/03/01 00:23:51;;;;;;;0.97;0.87;;;2.30;99.90;;;;;;4916642;29;20915;-71
2022/03/01 00:26:17;;;;;;;0.70;0.50;;;2.20;99.90;;;;;;4907549;29;20492;-71
2022/03/01 00:28:43;;;;;;;0.70;0.60;;;2.20;99.90;;;;;;4899281;29;20970;-71
2022/03/01 00:31:08;;;;;;;0.70;0.50;;;2.20;99.90;;;;;;4916899;29;20545;-71
2022/03/01 00:33:34;;;;;;;0.80;0.70;;;2.20;99.90;;;;;;4915947;29;20459;-71
2022/03/01 00:36:00;;;;;;;0.70;0.50;;;2.20;99.90;;;;;;4924458;28;20188;-71
2022/03/01 00:38:26;;;;;;;0.90;0.70;;;2.20;99.90;;;;;;4897477;29;20626;-71
2022/03/01 00:40:52;;;;;;;0.70;0.40;;;2.10;99.90;;;;;;4929273;29;20439;-71
2022/03/01 00:43:17;;;;;;;1.00;0.87;;;2.10;99.90;;;;;;4915299;29;20565;-71
2022/03/01 00:45:43;;;;;;;0.70;0.50;;;2.10;99.90;;;;;;4911571;29;20424;-71
2022/03/01 00:48:09;;;;;;;1.13;1.03;;;2.10;99.90;;;;;;4897016;29;20187;-71
2022/03/01 00:50:34;;;;;;;0.70;0.57;;;2.10;99.90;;;;;;4896466;29;20638;-71
2022/03/01 00:53:00;;;;;;;0.80;0.60;;;2.00;99.90;;;;;;4916710;29;20209;-71
2022/03/01 00:55:26;;;;;;;0.80;0.63;;;2.00;99.90;;;;;;4913915;29;20179;-71
2022/03/01 00:57:51;;;;;;;0.70;0.40;;;2.00;99.90;;;;;;4914295;29;20202;-71
2022/03/01 01:00:17;;;;;;;0.70;0.60;;;2.00;99.90;;;;;;4912933;29;20175;-71
2022/03/01 01:02:43;;;;;;;1.17;0.97;;;2.00;99.90;;;;;;4914746;29;20212;-71
2022/03/01 01:05:09;;;;;;;0.93;0.93;;;1.90;99.90;;;;;;4897433;29;20227;-70
2022/03/01 01:07:35;;;;;;;0.70;0.50;;;1.90;99.90;;;;;;4911892;29;20193;-71
2022/03/01 01:10:01;;;;;;;1.53;1.47;;;1.90;99.90;;;;;;4900799;29;20488;-71
2022/03/01 01:12:27;;;;;;;0.70;0.50;;;1.80;99.90;;;;;;4897199;29;20428;-71
2022/03/01 01:14:52;;;;;;;2.90;1.10;;;1.80;99.90;;;;;;4897203;29;20209;-70
2022/03/01 01:17:18;;;;;;;0.70;0.50;;;1.70;99.90;;;;;;4915144;29;20474;-70
2022/03/01 01:19:43;;;;;;;0.70;0.60;;;1.70;99.90;;;;;;4904448;29;20550;-71
2022/03/01 01:24:53;;;;;;;0.70;0.40;;;1.60;99.90;;;;;;4897143;29;20174;-71
2022/03/01 01:27:18;;;;;;;0.70;0.50;;;1.50;99.90;;;;;;4928492;29;20427;-72
2022/03/01 01:29:44;;;;;;;0.80;0.77;;;1.50;99.90;;;;;;4904472;29;20185;-71
2022/03/01 01:32:10;;;;;;;0.70;0.50;;;1.50;99.90;;;;;;4896886;29;20723;-71
2022/03/01 01:34:35;;;;;;;0.80;0.80;;;1.60;99.90;;;;;;4897408;29;20181;-71
2022/03/01 01:37:01;;;;;;;0.70;0.60;;;1.50;99.90;;;;;;4915596;29;20649;-71
2022/03/01 01:39:27;;;;;;;0.70;0.50;;;1.50;99.90;;;;;;4906940;29;20198;-71
2022/03/01 01:41:52;;;;;;;2.00;1.90;;;1.50;99.90;;;;;;4896859;29;20195;-72
2022/03/01 01:44:18;;;;;;;0.70;0.50;;;1.50;99.90;;;;;;4896805;29;20224;-72
2022/03/01 01:46:43;;;;;;;1.53;0.90;;;1.50;99.90;;;;;;4913405;29;20199;-71
2022/03/01 01:49:09;;;;;;;0.90;0.70;;;1.50;99.90;;;;;;4913830;29;20262;-71
2022/03/01 01:51:34;;;;;;;1.40;1.23;;;1.50;99.90;;;;;;4912885;29;20597;-71
2022/03/01 01:54:00;;;;;;;0.70;0.50;;;1.40;99.90;;;;;;4896820;29;20180;-72
2022/03/01 01:56:26;;;;;;;0.70;0.60;;;1.40;99.90;;;;;;4896851;29;20235;-71
2022/03/01 01:58:51;;;;;;;0.70;0.60;;;1.40;99.90;;;;;;4926824;29;20207;-71
2022/03/01 02:01:17;;;;;;;0.90;0.70;;;1.50;99.90;;;;;;4915336;29;20179;-71
2022/03/01 02:03:42;;;;;;;2.30;1.43;;;1.60;99.90;;;;;;4915523;29;20259;-71
2022/03/01 02:06:08;;;;;;;1.10;1.00;;;1.60;99.90;;;;;;4915561;29;20176;-71
2022/03/01 02:08:34;;;;;;;0.70;0.50;;;1.70;99.90;;;;;;4914547;29;20269;-71
2022/03/01 02:11:00;;;;;;;0.80;0.70;;;1.70;99.90;;;;;;4912808;29;20189;-71
2022/03/01 02:13:27;;;;;;;1.37;1.27;;;1.80;99.90;;;;;;4915427;29;20328;-71
2022/03/01 02:15:54;;;;;;;0.70;0.50;;;1.80;99.90;;;;;;4915609;29;20758;-71
2022/03/01 02:18:20;;;;;;;0.70;0.50;;;1.80;99.90;;;;;;4903741;29;20467;-71
2022/03/01 02:20:45;;;;;;;0.70;0.50;;;1.90;99.90;;;;;;4912399;29;20439;-71
2022/03/01 02:23:11;;;;;;;0.70;0.47;;;1.90;99.90;;;;;;4915283;29;20810;-71
2022/03/01 02:25:37;;;;;;;14.70;2.00;;;1.90;99.90;;;;;;4915158;29;20208;-71
2022/03/01 02:28:03;;;;;;;0.80;0.80;;;1.90;99.90;;;;;;4915119;29;20265;-72
2022/03/01 02:30:29;;;;;;;0.70;0.43;;;2.00;99.90;;;;;;4898018;29;20439;-71
2022/03/01 02:32:55;;;;;;;0.83;0.83;;;2.00;99.90;;;;;;4898765;29;20463;-71
2022/03/01 02:35:22;;;;;;;1.07;1.00;;;2.00;99.90;;;;;;4913058;29;20206;-71
2022/03/01 02:37:47;;;;;;;0.80;0.70;;;2.00;99.90;;;;;;4915296;29;20197;-71
2022/03/01 02:40:13;;;;;;;0.80;0.70;;;2.00;99.90;;;;;;4899791;29;20508;-71
2022/03/01 02:42:41;;;;;;;0.80;0.53;;;2.00;99.90;;;;;;4915155;29;20479;-71
2022/03/01 02:45:10;;;;;;;0.70;0.40;;;1.90;99.90;;;;;;4909995;29;20224;-71
2022/03/01 02:47:36;;;;;;;0.70;0.40;;;2.00;99.90;;;;;;4899865;29;20803;-71
2022/03/01 02:50:02;;;;;;;0.80;0.80;;;2.00;99.90;;;;;;4929441;29;20840;-71
2022/03/01 02:52:28;;;;;;;0.70;0.50;;;1.90;99.90;;;;;;4918313;29;20840;-71
2022/03/01 02:54:53;;;;;;;0.83;0.83;;;1.90;99.90;;;;;;4900003;29;20435;-71
2022/03/01 02:57:19;;;;;;;0.70;0.50;;;1.90;99.90;;;;;;4899510;29;20298;-71
2022/03/01 02:59:45;;;;;;;0.70;0.50;;;1.90;99.90;;;;;;4912157;29;20613;-71
2022/03/01 03:02:12;;;;;;;0.70;0.40;;;1.90;99.90;;;;;;4918381;29;20851;-71
2022/03/01 03:04:38;;;;;;;0.90;0.70;;;1.90;99.90;;;;;;4918303;29;20430;-71
2022/03/01 03:07:04;;;;;;;0.70;0.50;;;1.90;99.90;;;;;;4918369;29;20773;-71
2022/03/01 03:09:30;;;;;;;0.70;0.40;;;2.00;99.90;;;;;;4907067;29;20428;-71
2022/03/01 03:11:55;;;;;;;0.70;0.70;;;2.00;99.90;;;;;;4913236;29;20210;-72
2022/03/01 03:14:21;;;;;;;0.70;0.43;;;2.00;99.90;;;;;;4918243;29;20200;-71
2022/03/01 03:16:46;;;;;;;0.70;0.50;;;2.00;99.90;;;;;;4932874;28;20548;-71
2022/03/01 03:19:15;;;;;;;0.70;0.50;;;2.10;99.90;;;;;;4909255;29;20255;-71
2022/03/01 03:21:41;;;;;;;0.70;0.50;;;2.10;99.90;;;;;;4899221;29;20186;-71
2022/03/01 03:24:06;;;;;;;0.70;0.50;;;2.20;99.90;;;;;;4927934;29;20423;-71
2022/03/01 03:26:32;;;;;;;0.70;0.50;;;2.30;99.90;;;;;;4932573;28;20483;-71
2022/03/01 03:28:57;;;;;;;0.70;0.50;;;2.30;99.90;;;;;;4910876;29;20194;-71
2022/03/01 03:31:23;;;;;;;0.80;0.80;;;2.30;99.90;;;;;;4899020;29;20267;-71
2022/03/01 03:33:48;;;;;;;0.70;0.60;;;2.30;99.90;;;;;;4907494;29;20202;-71
2022/03/01 03:36:14;;;;;;;0.70;0.40;;;2.40;99.90;;;;;;4917626;29;20262;-71
2022/03/01 03:38:39;;;;;;;0.80;0.67;;;2.40;99.90;;;;;;4904403;29;20203;-71
2022/03/01 03:41:05;;;;;;;0.70;0.60;;;2.40;99.90;;;;;;4898935;29;20601;-71
2022/03/01 03:43:30;;;;;;;1.33;1.23;;;2.40;99.90;;;;;;4898735;29;20684;-71
2022/03/01 03:45:56;;;;;;;0.70;0.50;;;2.30;99.90;;;;;;4920217;29;20232;-71
2022/03/01 03:48:22;;;;;;;3.63;1.87;;;2.30;99.90;;;;;;4912063;29;20263;-71
2022/03/01 03:50:47;;;;;;;0.70;0.50;;;2.30;99.90;;;;;;4913199;29;20215;-71
2022/03/01 03:53:13;;;;;;;0.83;0.70;;;2.20;99.90;;;;;;4897663;29;20199;-71
2022/03/01 03:55:38;;;;;;;0.70;0.50;;;2.10;99.90;;;;;;4906018;29;20191;-71
2022/03/01 03:58:04;;;;;;;0.70;0.47;;;2.10;99.90;;;;;;4914409;29;20251;-72
2022/03/01 04:00:30;;;;;;;1.13;1.03;;;2.10;99.90;;;;;;4899532;29;20260;-71
2022/03/01 04:02:55;;;;;;;0.70;0.50;;;2.00;99.90;;;;;;4898541;29;20781;-71
2022/03/01 04:05:21;;;;;;;2.13;2.03;;;2.00;99.90;;;;;;4917651;29;20179;-72
2022/03/01 04:07:48;;;;;;;3.23;2.40;;;1.90;99.90;;;;;;4915656;29;20194;-72
2022/03/01 04:10:14;;;;;;;1.77;1.43;;;2.00;99.90;;;;;;4915078;29;20182;-72
2022/03/01 04:12:39;;;;;;;0.80;0.77;;;1.90;99.90;;;;;;4916988;29;20558;-72
2022/03/01 04:15:07;;;;;;;0.70;0.50;;;1.90;99.90;;;;;;4916548;29;20512;-72
2022/03/01 04:17:33;;;;;;;0.70;0.50;;;2.00;99.90;;;;;;4916323;29;20199;-72
2022/03/01 04:19:58;;;;;;;0.70;0.50;;;2.00;99.90;;;;;;4909543;29;20436;-72
2022/03/01 04:22:24;;;;;;;0.70;0.40;;;2.00;99.90;;;;;;4898064;29;20472;-72
2022/03/01 04:24:50;;;;;;;0.70;0.50;;;2.10;99.90;;;;;;4896799;29;20175;-72
2022/03/01 04:27:17;;;;;;;0.80;0.80;;;2.10;99.90;;;;;;4912165;29;20189;-71
2022/03/01 04:29:43;;;;;;;0.70;0.50;;;2.20;99.90;;;;;;4915920;29;20170;-72
2022/03/01 04:32:09;;;;;;;0.70;0.50;;;2.10;99.90;;;;;;4916488;29;20452;-72
2022/03/01 04:34:35;;;;;;;0.70;0.50;;;2.20;99.90;;;;;;4917139;29;20992;-72
2022/03/01 04:37:01;;;;;;;0.70;0.50;;;2.10;99.90;;;;;;4915234;29;20431;-71
2022/03/01 04:39:26;;;;;;;0.70;0.50;;;2.20;99.90;;;;;;4912395;29;20214;-71
2022/03/01 04:41:53;;;;;;;1.90;0.93;;;2.20;99.90;;;;;;4905422;29;20207;-71
2022/03/01 04:44:18;;;;;;;0.70;0.50;;;2.20;99.90;;;;;;4916411;29;20171;-71
2022/03/01 04:46:44;;;;;;;1.73;1.60;;;2.20;99.90;;;;;;4898170;29;20432;-71
2022/03/01 04:49:09;;;;;;;0.90;0.80;;;2.20;99.90;;;;;;4898194;29;20210;-71
2022/03/01 04:51:35;;;;;;;0.70;0.50;;;2.20;99.90;;;;;;4916396;29;20293;-71
2022/03/01 04:54:00;;;;;;;1.50;1.37;;;2.20;99.90;;;;;;4915761;29;20191;-71
2022/03/01 04:56:26;;;;;;;1.03;0.93;;;2.10;99.90;;;;;;4916487;29;20181;-71
2022/03/01 04:58:52;;;;;;;0.70;0.40;;;2.10;99.90;;;;;;4928736;28;20207;-71
2022/03/01 05:01:18;;;;;;;0.73;0.60;;;2.10;99.90;;;;;;4907851;29;20180;-72
2022/03/01 05:03:43;;;;;;;0.70;0.40;;;2.00;99.90;;;;;;4897380;29;20478;-73
2022/03/01 05:06:09;;;;;;;0.70;0.50;;;2.00;99.90;;;;;;4903433;29;20498;-73
2022/03/01 05:08:35;;;;;;;3.37;3.07;;;2.00;99.90;;;;;;4915965;29;20200;-73
2022/03/01 05:11:02;;;;;;;0.80;0.70;;;2.00;99.90;;;;;;4911095;29;20184;-73
2022/03/01 05:13:27;;;;;;;0.70;0.50;;;2.00;99.90;;;;;;4897136;29;20214;-73
2022/03/01 05:15:53;;;;;;;0.70;0.50;;;2.00;99.90;;;;;;4897251;29;20771;-73
2022/03/01 05:18:19;;;;;;;0.70;0.50;;;2.00;99.90;;;;;;4904887;29;20681;-71
2022/03/01 05:20:45;;;;;;;0.70;0.40;;;2.00;99.90;;;;;;4915927;29;20184;-71
2022/03/01 05:23:10;;;;;;;0.97;0.97;;;2.00;99.90;;;;;;4911834;29;20222;-73
2022/03/01 05:25:36;;;;;;;1.53;1.40;;;2.00;99.90;;;;;;4897072;29;20232;-71
2022/03/01 05:28:02;;;;;;;0.70;0.50;;;2.00;99.90;;;;;;4915497;29;20190;-73
2022/03/01 05:30:28;;;;;;;0.70;0.40;;;2.10;99.90;;;;;;4914013;29;20185;-73
2022/03/01 05:32:56;;;;;;;0.70;0.50;;;2.10;99.90;;;;;;4915995;29;21004;-73
2022/03/01 05:35:28;;;;;;;0.70;0.50;;;2.20;99.90;;;;;;4915556;29;20193;-73
2022/03/01 05:37:55;;;;;;;0.97;0.60;;;2.20;99.90;;;;;;4915787;29;20923;-73
2022/03/01 05:40:23;;;;;;;2.10;2.00;;;2.30;99.90;;;;;;4915551;29;20830;-73
2022/03/01 05:42:49;;;;;;;0.70;0.47;;;2.30;99.90;;;;;;4915617;29;20918;-73
2022/03/01 05:45:15;;;;;;;0.70;0.40;;;2.30;99.90;;;;;;4914566;29;20505;-73
2022/03/01 05:47:43;;;;;;;0.70;0.50;;;2.40;99.90;;;;;;4905107;29;20444;-73
2022/03/01 05:50:09;;;;;;;0.70;0.40;;;2.50;99.90;;;;;;4896603;29;20415;-73
2022/03/01 05:52:36;;;;;;;0.70;0.60;;;2.40;99.90;;;;;;4897775;29;20459;-73
2022/03/01 05:55:04;;;;;;;0.70;0.50;;;2.40;99.90;;;;;;4908663;29;20430;-70
2022/03/01 05:57:30;;;;;;;0.87;0.80;;;2.40;99.90;;;;;;4905206;28;20994;-72
2022/03/01 05:59:56;;;;;;;0.70;0.50;;;2.40;99.90;;;;;;4896533;29;20471;-72
2022/03/01 06:02:22;;;;;;;0.70;0.60;;;2.40;99.90;;;;;;4914333;29;21002;-71
2022/03/01 06:04:48;;;;;;;0.80;0.77;;;2.40;99.90;;;;;;4911113;29;20482;-71
2022/03/01 06:07:13;;;;;;;0.70;0.40;;;2.40;99.90;;;;;;4911994;29;20765;-71
2022/03/01 06:09:39;;;;;;;0.70;0.47;;;2.30;99.90;;;;;;4914780;29;20235;-71
2022/03/01 06:12:05;;;;;;;0.83;0.83;;;2.30;99.90;;;;;;4915550;29;20214;-71
2022/03/01 06:14:30;;;;;;;0.70;0.50;;;2.30;99.90;;;;;;4915522;29;20174;-71
2022/03/01 06:16:56;;;;;;;0.80;0.60;;;2.40;99.90;;;;;;4916605;29;20438;-71
2022/03/01 06:19:22;;;;;;;0.90;0.70;;;2.40;99.90;;;;;;4931732;28;20215;-71
2022/03/01 06:21:47;;;;;;;1.27;0.63;;;2.40;99.90;;;;;;4919307;29;20194;-71
2022/03/01 06:24:13;;;;;;;1.20;0.60;;;2.50;99.90;;;;;;4918848;29;20200;-72
2022/03/01 06:26:39;;;;;;;2.23;2.03;;;2.50;99.90;;;;;;4918823;29;20180;-72
2022/03/01 06:29:05;;;;;;;0.70;0.50;;;2.60;99.90;;;;;;4933545;28;20183;-72
2022/03/01 06:31:30;;;;;;;0.70;0.50;;;2.60;99.90;;;;;;4915778;29;20190;-71
2022/03/01 06:33:56;;;;;;;0.70;0.50;;;2.60;99.90;;;;;;4918624;29;20808;-71
2022/03/01 06:36:23;;;;;;;11.73;2.40;;;2.70;99.90;;;;;;4915844;29;20236;-72
2022/03/01 06:38:49;;;;;;;0.70;0.60;;;2.70;99.90;;;;;;4918360;29;20837;-71
2022/03/01 06:41:14;;;;;;;0.70;0.53;;;2.70;99.90;;;;;;4918635;29;20434;-72
2022/03/01 06:43:40;;;;;;;0.70;0.60;;;2.80;99.90;;;;;;4918681;29;20815;-72
2022/03/01 06:46:06;;;;;;;0.70;0.50;;;2.80;99.90;;;;;;4918819;29;20174;-72
2022/03/01 06:48:31;;;;;;;1.53;1.43;;;2.90;99.90;;;;;;4902422;29;20184;-71
2022/03/01 06:50:57;;;;;;;0.70;0.47;;;3.00;99.90;;;;;;4899870;29;20190;-72
2022/03/01 06:53:22;;;;;;;0.70;0.47;;;3.00;99.90;;;;;;4899761;29;20192;-72
2022/03/01 06:55:48;;;;;;;1.27;1.07;;;3.10;99.90;;;;;;4911041;29;20193;-72
2022/03/01 06:58:13;;;;;;;0.70;0.50;;;3.20;99.90;;;;;;4899594;29;20223;-72
2022/03/01 07:00:39;;;;;;;0.90;0.83;;;3.30;99.90;;;;;;4917169;29;20206;-72
2022/03/01 07:03:05;;;;;;;0.80;0.70;;;3.40;99.90;;;;;;4918360;29;20282;-72
2022/03/01 07:05:31;;;;;;;0.80;0.70;;;3.40;99.90;;;;;;4908400;29;20649;-72
2022/03/01 07:07:56;;;;;;;0.70;0.50;;;3.50;99.90;;;;;;4917548;29;20434;-72
2022/03/01 07:10:22;;;;;;;1.20;1.10;;;3.60;99.90;;;;;;4918088;29;20200;-72
2022/03/01 07:12:48;;;;;;;0.70;0.50;;;3.60;99.90;;;;;;4932863;28;20198;-72
2022/03/01 07:15:14;;;;;;;0.70;0.47;;;3.70;99.90;;;;;;4918319;29;20183;-73
2022/03/01 07:17:40;;;;;;;0.73;0.60;;;3.70;99.90;;;;;;4917962;29;20455;-72
2022/03/01 07:20:07;;;;;;;1.67;1.57;;;3.70;99.90;;;;;;4917790;29;20434;-72
2022/03/01 07:22:33;;;;;;;0.70;0.50;;;3.70;99.90;;;;;;4916478;29;20267;-72
2022/03/01 07:24:59;;;;;;;0.70;0.50;;;3.80;99.90;;;;;;4899269;29;20420;-72
2022/03/01 07:27:25;;;;;;;1.33;1.23;;;3.80;99.90;;;;;;4914575;29;20504;-73
2022/03/01 07:29:50;;;;;;;1.63;1.23;;;3.90;99.90;;;;;;4916681;29;20175;-72
2022/03/01 07:32:15;;;;;;;0.73;0.67;;;3.90;99.90;;;;;;4931830;28;20205;-72
2022/03/01 07:34:42;;;;;;;2.60;2.40;;;4.00;99.90;;;;;;4932280;28;20248;-72
2022/03/01 07:37:09;;;;;;;2.40;2.20;;;4.00;99.90;;;;;;4917388;29;20176;-72
2022/03/01 07:39:34;;;;;;;0.70;0.50;;;4.10;99.90;;;;;;4917729;29;20819;-72
2022/03/01 07:42:00;;;;;;;0.70;0.60;;;4.30;99.90;;;;;;4917594;29;20442;-72
2022/03/01 07:44:26;;;;;;;0.70;0.50;;;4.30;99.90;;;;;;4917819;29;20280;-72
2022/03/01 07:46:51;;;;;;;0.70;0.67;;;4.40;99.90;;;;;;4917423;29;20186;-72
2022/03/01 07:49:17;;;;;;;1.10;0.97;;;4.50;99.90;;;;;;4900632;29;20546;-72
2022/03/01 07:51:43;;;;;;;1.77;1.67;;;4.70;99.90;;;;;;4898698;29;20196;-73
2022/03/01 07:54:09;;;;;;;0.90;0.80;;;4.80;99.90;;;;;;4898678;29;20442;-72
2022/03/01 07:56:35;;;;;;;1.33;1.23;;;4.80;99.90;;;;;;4909904;29;20187;-72
2022/03/01 07:59:00;;;;;;;8.00;1.33;;;4.90;99.90;;;;;;4917147;29;20878;-72
2022/03/01 08:01:26;;;;;;;1.20;1.10;;;5.10;99.90;;;;;;4901975;29;20224;-72
2022/03/01 08:03:52;;;;;;;0.70;0.50;;;5.30;99.90;;;;;;4898592;29;20187;-73
2022/03/01 08:06:17;;;;;;;2.17;1.97;;;5.50;99.90;;;;;;4898639;29;20639;-73
2022/03/01 08:08:43;;;;;;;0.80;0.70;;;5.70;99.90;;;;;;4906674;29;20677;-72
2022/03/01 08:11:09;;;;;;;0.80;0.80;;;6.00;99.90;;;;;;4915950;29;20202;-72
2022/03/01 08:13:35;;;;;;;2.03;1.93;;;6.30;99.90;;;;;;4902625;29;20452;-73
2022/03/01 08:16:02;;;;;;;1.00;0.70;;;6.50;99.90;;;;;;4901626;29;20190;-72
2022/03/01 08:18:28;;;;;;;1.20;1.10;;;6.70;99.90;;;;;;4916681;29;20210;-73
2022/03/01 08:20:53;;;;;;;1.20;1.10;;;6.90;99.90;;;;;;4930965;28;20427;-73
2022/03/01 08:23:19;;;;;;;1.10;0.70;;;7.20;99.90;;;;;;4916512;29;20230;-73
2022/03/01 08:25:44;;;;;;;0.70;0.50;;;7.50;99.90;;;;;;4915486;29;20192;-72
2022/03/01 08:28:11;;;;;;;2.27;2.13;;;8.00;99.90;;;;;;4898002;29;20195;-72
2022/03/01 08:30:37;;;;;;;1.50;1.20;;;9.00;99.90;;;;;;4897595;29;20258;-73
2022/03/01 08:33:03;;;;;;;2.20;1.20;;;9.90;95.60;;;;;;4906619;29;20558;-73
2022/03/01 08:35:32;;;;;;;0.70;0.60;;;10.80;90.80;;;;;;4909757;29;20560;-73
2022/03/01 08:38:05;;;;;;;2.73;0.80;;;11.50;85.00;;;;;;4914530;29;20487;-73
2022/03/01 08:40:39;;;;;;;1.83;1.33;;;12.10;78.30;;;;;;4915449;29;20801;-73
2022/03/01 08:43:07;;;;;;;1.23;1.10;;;12.60;71.10;;;;;;4916169;29;20821;-73
2022/03/01 08:45:33;;;;;;;1.77;1.60;;;13.10;66.80;;;;;;4916251;29;20471;-74
2022/03/01 08:47:58;;;;;;;1.60;1.00;;;13.60;62.90;;;;;;4914192;29;20419;-73
2022/03/01 08:50:24;;;;;;;2.70;1.77;;;14.00;59.00;;;;;;4897220;29;20799;-73
2022/03/01 08:52:50;;;;;;;2.30;2.10;;;14.40;57.90;;;;;;4897332;29;20208;-73
2022/03/01 08:55:16;;;;;;;1.60;1.50;;;14.40;56.40;;;;;;4910225;29;20227;-74
2022/03/01 08:57:42;;;;;;;1.23;1.13;;;14.20;56.00;;;;;;4899387;29;20460;-75
2022/03/01 09:00:10;;;;;;;0.70;0.60;;;14.10;55.70;;;;;;4913727;29;20621;-74
2022/03/01 09:02:36;;;;;;;6.00;2.33;;;14.00;55.80;;;;;;4916083;29;20617;-74
2022/03/01 09:05:05;;;;;;;2.80;1.83;;;14.00;54.80;;;;;;4915324;29;20443;-74
2022/03/01 09:07:31;;;;;;;1.53;0.90;;;13.90;54.70;;;;;;4916001;29;20259;-74
2022/03/01 09:09:56;;;;;;;7.20;1.27;;;13.60;55.30;;;;;;4915757;29;20487;-74
2022/03/01 09:12:22;;;;;;;0.80;0.60;;;13.40;55.40;;;;;;4915234;29;20547;-73
2022/03/01 09:14:47;;;;;;;1.40;1.30;;;13.10;54.90;;;;;;4915738;29;20175;-73
2022/03/01 09:17:13;;;;;;;1.63;1.53;;;12.90;55.70;;;;;;4916111;29;20175;-73
2022/03/01 09:19:38;;;;;;;0.97;0.87;;;12.70;55.10;;;;;;4915684;29;20186;-73
2022/03/01 09:22:04;;;;;;;1.13;1.03;;;12.40;54.50;;;;;;4930025;28;20250;-73
2022/03/01 09:24:30;;;;;;;6.47;1.27;;;12.20;54.50;;;;;;4915264;29;20179;-73
2022/03/01 09:26:57;;;;;;;1.53;0.80;;;12.00;54.20;;;;;;4915091;29;20186;-73
2022/03/01 09:29:23;;;;;;;1.40;1.30;;;11.70;55.00;;;;;;4929997;28;20186;-73
2022/03/01 09:31:49;;;;;;;2.90;0.80;;;11.40;55.20;;;;;;4915743;29;20491;-73
2022/03/01 09:34:15;;;;;;;0.70;0.50;;;11.10;55.40;;;;;;4915733;29;20182;-73
2022/03/01 09:36:40;;;;;;;6.43;3.00;;;10.80;56.60;;;;;;4929890;28;20431;-73
2022/03/01 09:39:06;;;;;;;1.30;1.20;;;10.50;56.90;;;;;;4915126;29;20222;-72
2022/03/01 09:41:33;;;;;;;1.60;1.03;;;10.20;57.50;;;;;;4915335;29;20258;-72
2022/03/01 09:43:59;;;;;;;2.50;0.90;;;10.00;58.80;;;;;;4896918;29;20705;-73
2022/03/01 09:46:24;;;;;;;1.27;1.17;;;9.70;59.90;;;;;;4905953;29;20427;-72
2022/03/01 09:48:50;;;;;;;10.23;1.27;;;9.50;60.50;;;;;;4915015;29;20438;-73
2022/03/01 09:51:17;;;;;;;1.00;0.80;;;9.30;61.30;;;;;;4914358;29;20191;-73
2022/03/01 09:53:43;;;;;;;1.00;0.90;;;9.30;63.10;;;;;;4918856;29;20259;-73
2022/03/01 09:56:10;;;;;;;1.67;1.13;;;9.80;64.40;;;;;;4919344;29;20411;-73
2022/03/01 09:58:36;;;;;;;3.53;3.23;;;10.60;61.40;;;;;;4918892;29;20459;-74
2022/03/01 10:01:02;;;;;;;5.20;2.67;;;11.80;60.20;;;;;;4917737;29;20494;-74
2022/03/01 10:03:28;;;;;;;2.13;1.93;;;13.30;57.70;;;;;;4904904;29;20459;-74
2022/03/01 10:06:04;;;;;;;2.37;2.27;;;14.80;54.30;;;;;;4900689;29;20426;-73
2022/03/01 10:08:31;;;;;;;1.47;1.13;;;16.40;52.90;;;;;;4906821;29;20979;-74
2022/03/01 10:10:57;;;;;;;1.13;1.03;;;17.70;48.70;;;;;;4919170;29;20779;-74
2022/03/01 10:13:28;;;;;;;2.60;2.40;;;18.50;46.40;;;;;;4908021;29;20457;-74
2022/03/01 10:16:11;;;;;;;8.10;5.00;;;19.20;45.80;;;;;;4900414;29;20172;-74
2022/03/01 10:18:39;;;;;;;3.37;2.53;;;20.10;43.00;;;;;;4908615;29;20455;-74
2022/03/01 10:21:13;;;;;;;5.50;1.30;;;21.00;42.90;;;;;;4918677;29;20431;-72
2022/03/01 10:23:47;;;;;;;7.80;2.37;;;22.10;41.10;;;;;;4918865;29;20438;-72
2022/03/01 10:26:16;;;;;;;2.13;1.67;;;23.30;39.60;;;;;;4902894;29;20433;-72
2022/03/01 10:28:43;;;;;;;2.43;1.67;;;24.20;37.00;;;;;;4918395;29;20431;-72
2022/03/01 10:31:17;;;;;;;1.67;1.37;;;24.60;37.20;;;;;;4918597;29;20510;-71
2022/03/01 10:34:13;;;;;;;1.40;1.30;;;24.30;36.20;;;;;;4899469;29;20849;-72
2022/03/01 10:36:47;;;;;;;5.53;2.23;;;23.60;36.10;;;;;;4904709;29;20490;-72
2022/03/01 10:39:28;;;;;;;5.00;2.13;;;22.80;36.00;;;;;;4918075;29;20467;-72
2022/03/01 10:41:53;;;;;;;1.03;0.93;;;21.70;36.10;;;;;;4899589;29;20440;-71
2022/03/01 10:44:25;;;;;;;1.20;1.10;;;20.60;36.10;;;;;;4917324;29;20483;-71
2022/03/01 10:46:59;;;;;;;3.07;1.87;;;19.60;36.80;;;;;;4917918;29;20510;-72
2022/03/01 10:49:27;;;;;;;2.00;1.27;;;18.60;37.00;;;;;;4904475;29;20444;-72
2022/03/01 10:51:57;;;;;;;1.43;0.93;;;17.80;38.10;;;;;;4917654;29;20455;-72
2022/03/01 10:54:28;;;;;;;5.97;2.03;;;17.00;39.80;;;;;;4918513;29;20487;-72
2022/03/01 10:56:55;;;;;;;3.23;2.60;;;16.40;40.30;;;;;;4907218;29;20794;-72
2022/03/01 10:59:23;;;;;;;3.73;1.40;;;15.80;41.20;;;;;;4897837;29;20520;-70
2022/03/01 11:01:48;;;;;;;1.80;1.33;;;15.30;41.40;;;;;;4912634;29;20510;-70
2022/03/01 11:04:14;;;;;;;0.97;0.90;;;14.90;41.80;;;;;;4917762;29;20407;-70
2022/03/01 11:06:41;;;;;;;1.63;1.07;;;14.70;43.40;;;;;;4918166;29;20537;-71
2022/03/01 11:09:08;;;;;;;6.63;1.93;;;14.50;44.10;;;;;;4918066;29;20251;-71
2022/03/01 11:11:36;;;;;;;1.30;1.20;;;14.30;44.40;;;;;;4918073;29;20424;-71
2022/03/01 11:14:03;;;;;;;2.10;1.40;;;14.20;44.30;;;;;;4916781;29;20428;-71
2022/03/01 11:16:42;;;;;;;2.00;1.27;;;14.20;44.80;;;;;;4917842;29;20482;-71
2022/03/01 11:19:34;;;;;;;2.53;1.07;;;14.20;44.80;;;;;;4917488;29;20463;-71
2022/03/01 11:22:00;;;;;;;2.00;1.70;;;14.10;44.10;;;;;;4929110;28;20496;-71
2022/03/01 11:24:26;;;;;;;4.10;1.73;;;14.20;44.00;;;;;;4909677;29;20425;-70
2022/03/01 11:26:51;;;;;;;1.07;0.77;;;14.10;42.80;;;;;;4899064;29;20857;-71
2022/03/01 11:29:19;;;;;;;5.30;1.33;;;14.10;42.40;;;;;;4898825;29;20464;-71
2022/03/01 11:31:57;;;;;;;0.93;0.90;;;14.20;42.90;;;;;;4902319;29;20199;-71
2022/03/01 11:34:23;;;;;;;1.90;1.80;;;14.40;43.30;;;;;;4917691;29;20420;-71
2022/03/01 11:36:57;;;;;;;1.70;1.60;;;14.40;42.70;;;;;;4910235;29;20427;-71
2022/03/01 11:39:26;;;;;;;4.23;2.23;;;14.50;42.40;;;;;;4910774;29;20825;-74
2022/03/01 11:41:59;;;;;;;1.90;1.77;;;14.60;42.70;;;;;;4916182;29;20451;-75
2022/03/01 11:44:25;;;;;;;1.73;1.10;;;14.60;43.00;;;;;;4917590;29;20933;-75
2022/03/01 11:46:51;;;;;;;3.47;3.17;;;14.70;43.00;;;;;;4917767;29;20407;-74
2022/03/01 11:49:20;;;;;;;0.80;0.80;;;14.80;43.00;;;;;;4903853;29;20203;-74
2022/03/01 11:51:53;;;;;;;0.80;0.60;;;14.90;42.50;;;;;;4898808;29;20431;-74
2022/03/01 11:54:26;;;;;;;4.80;2.00;;;15.00;41.90;;;;;;4898793;29;20411;-71
2022/03/01 11:56:54;;;;;;;2.27;1.10;;;15.00;42.50;;;;;;4925106;29;20764;-74
2022/03/01 11:59:21;;;;;;;2.80;1.60;;;15.00;42.50;;;;;;4917079;29;20459;-74
2022/03/01 12:01:47;;;;;;;1.23;0.80;;;15.20;43.10;;;;;;4900006;29;20479;-75
2022/03/01 12:04:18;;;;;;;3.30;3.07;;;15.10;42.70;;;;;;4898548;29;20400;-72
2022/03/01 12:06:45;;;;;;;2.70;1.37;;;15.10;43.40;;;;;;4907723;29;20921;-72
2022/03/01 12:09:11;;;;;;;0.90;0.80;;;15.00;42.90;;;;;;4916889;29;20510;-73
2022/03/01 12:11:39;;;;;;;0.90;0.80;;;15.00;43.00;;;;;;4916001;29;20459;-70
2022/03/01 12:14:15;;;;;;;1.90;1.40;;;15.00;43.60;;;;;;4897545;29;20913;-70
2022/03/01 12:16:41;;;;;;;1.30;1.20;;;15.00;43.30;;;;;;4906547;29;20794;-70
2022/03/01 12:19:15;;;;;;;3.80;1.10;;;15.10;43.30;;;;;;4916772;29;20459;-70
2022/03/01 12:21:48;;;;;;;1.80;1.70;;;15.20;42.50;;;;;;4917074;29;20530;-70
2022/03/01 12:24:14;;;;;;;2.33;1.30;;;15.40;43.00;;;;;;4913901;29;20814;-71
2022/03/01 12:26:45;;;;;;;3.20;2.00;;;15.60;43.20;;;;;;4913033;29;20415;-70
2022/03/01 12:29:11;;;;;;;1.67;0.90;;;15.80;41.90;;;;;;4935772;29;20528;-71
2022/03/01 12:31:38;;;;;;;2.07;1.30;;;15.90;41.50;;;;;;4935984;29;20500;-71
2022/03/01 12:34:07;;;;;;;2.00;1.90;;;16.10;41.20;;;;;;4920255;29;20427;-71
2022/03/01 12:36:36;;;;;;;1.00;0.90;;;16.90;41.60;;;;;;4915402;29;20964;-71
2022/03/01 12:39:15;;;;;;;1.40;1.30;;;17.50;41.30;;;;;;4919740;29;20455;-71
2022/03/01 12:41:44;;;;;;;1.73;1.43;;;17.80;40.80;;;;;;4916196;29;20459;-71
2022/03/01 12:44:11;;;;;;;0.80;0.80;;;17.90;40.70;;;;;;4916720;29;20408;-71
2022/03/01 12:46:38;;;;;;;1.77;1.67;;;17.90;39.50;;;;;;4916700;29;20969;-72
2022/03/01 12:49:08;;;;;;;2.40;1.70;;;18.00;39.00;;;;;;4927609;29;20785;-71
2022/03/01 12:51:34;;;;;;;3.10;2.80;;;18.10;39.30;;;;;;4926682;28;20439;-71
2022/03/01 12:54:03;;;;;;;1.60;1.50;;;18.10;39.30;;;;;;4916667;29;20416;-71